sensor_id;sensor_type;location;lat;lon;timestamp;temperature;humidity
4840;DHT22;2434;48.486;7.964;2023-07-29T00:01:50;19.90;82.70
4840;DHT22;2434;48.486;7.964;2023-07-29T00:04:20;19.90;83.20
4840;DHT22;2434;48.486;7.964;2023-07-29T00:06:49;19.80;82.40
4840;DHT22;2434;48.486;7.964;2023-07-29T00:09:17;19.80;83.50
4840;DHT22;2434;48.486;7.964;2023-07-29T00:11:47;19.90;82.80
4840;DHT22;2434;48.486;7.964;2023-07-29T00:14:15;19.80;82.90
4840;DHT22;2434;48.486;7.964;2023-07-29T00:16:43;19.80;82.60
4840;DHT22;2434;48.486;7.964;2023-07-29T00:19:12;19.80;82.70
4840;DHT22;2434;48.486;7.964;2023-07-29T00:21:41;19.80;82.80
4840;DHT22;2434;48.486;7.964;2023-07-29T00:24:09;19.80;83.00
4840;DHT22;2434;48.486;7.964;2023-07-29T00:26:37;19.80;83.50
4840;DHT22;2434;48.486;7.964;2023-07-29T00:29:07;19.80;83.00
4840;DHT22;2434;48.486;7.964;2023-07-29T00:31:35;19.80;83.30
4840;DHT22;2434;48.486;7.964;2023-07-29T00:34:03;19.80;83.20
4840;DHT22;2434;48.486;7.964;2023-07-29T00:36:31;19.80;83.00
4840;DHT22;2434;48.486;7.964;2023-07-29T00:39:00;19.80;83.20
4840;DHT22;2434;48.486;7.964;2023-07-29T00:41:29;19.70;83.10
4840;DHT22;2434;48.486;7.964;2023-07-29T00:43:58;19.70;83.20
4840;DHT22;2434;48.486;7.964;2023-07-29T00:46:33;19.70;82.80
4840;DHT22;2434;48.486;7.964;2023-07-29T00:49:02;19.70;82.80
4840;DHT22;2434;48.486;7.964;2023-07-29T00:51:30;19.70;82.50
4840;DHT22;2434;48.486;7.964;2023-07-29T00:53:58;19.70;82.30
4840;DHT22;2434;48.486;7.964;2023-07-29T00:56:27;19.80;81.80
4840;DHT22;2434;48.486;7.964;2023-07-29T00:58:55;19.80;81.80
4840;DHT22;2434;48.486;7.964;2023-07-29T01:01:27;19.80;81.90
4840;DHT22;2434;48.486;7.964;2023-07-29T01:03:57;19.80;82.20
4840;DHT22;2434;48.486;7.964;2023-07-29T01:06:31;19.80;82.30
4840;DHT22;2434;48.486;7.964;2023-07-29T01:09:04;19.80;82.60
4840;DHT22;2434;48.486;7.964;2023-07-29T01:11:41;19.90;82.30
4840;DHT22;2434;48.486;7.964;2023-07-29T01:14:21;19.80;82.30
4840;DHT22;2434;48.486;7.964;2023-07-29T01:16:58;19.80;82.30
4840;DHT22;2434;48.486;7.964;2023-07-29T01:19:51;19.80;82.20
4840;DHT22;2434;48.486;7.964;2023-07-29T01:22:24;19.80;82.20
4840;DHT22;2434;48.486;7.964;2023-07-29T01:24:54;19.80;82.20
4840;DHT22;2434;48.486;7.964;2023-07-29T01:27:24;19.90;82.70
4840;DHT22;2434;48.486;7.964;2023-07-29T01:29:53;19.90;82.60
4840;DHT22;2434;48.486;7.964;2023-07-29T01:32:27;19.90;82.80
4840;DHT22;2434;48.486;7.964;2023-07-29T01:35:03;19.90;82.30
4840;DHT22;2434;48.486;7.964;2023-07-29T01:37:33;19.80;82.20
4840;DHT22;2434;48.486;7.964;2023-07-29T01:40:05;19.80;82.30
4840;DHT22;2434;48.486;7.964;2023-07-29T01:42:35;19.80;82.50
4840;DHT22;2434;48.486;7.964;2023-07-29T01:45:05;19.80;82.90
4840;DHT22;2434;48.486;7.964;2023-07-29T01:47:33;19.80;83.20
4840;DHT22;2434;48.486;7.964;2023-07-29T01:50:01;19.80;83.30
4840;DHT22;2434;48.486;7.964;2023-07-29T01:52:30;19.70;83.40
4840;DHT22;2434;48.486;7.964;2023-07-29T01:54:58;19.70;83.50
4840;DHT22;2434;48.486;7.964;2023-07-29T01:57:28;19.70;84.20
4840;DHT22;2434;48.486;7.964;2023-07-29T01:59:56;19.70;83.60
4840;DHT22;2434;48.486;7.964;2023-07-29T02:02:25;19.70;83.90
4840;DHT22;2434;48.486;7.964;2023-07-29T02:04:53;19.70;83.80
4840;DHT22;2434;48.486;7.964;2023-07-29T02:07:22;19.70;83.80
4840;DHT22;2434;48.486;7.964;2023-07-29T02:09:53;19.70;83.50
4840;DHT22;2434;48.486;7.964;2023-07-29T02:12:22;19.70;83.50
4840;DHT22;2434;48.486;7.964;2023-07-29T02:14:52;19.60;84.20
4840;DHT22;2434;48.486;7.964;2023-07-29T02:17:20;19.60;83.40
4840;DHT22;2434;48.486;7.964;2023-07-29T02:19:48;19.60;83.70
4840;DHT22;2434;48.486;7.964;2023-07-29T02:22:17;19.60;83.70
4840;DHT22;2434;48.486;7.964;2023-07-29T02:24:46;19.70;83.70
4840;DHT22;2434;48.486;7.964;2023-07-29T02:27:14;19.70;83.70
4840;DHT22;2434;48.486;7.964;2023-07-29T02:29:42;19.70;83.70
4840;DHT22;2434;48.486;7.964;2023-07-29T02:32:12;19.70;83.60
4840;DHT22;2434;48.486;7.964;2023-07-29T02:34:40;19.70;83.40
4840;DHT22;2434;48.486;7.964;2023-07-29T02:37:09;19.70;83.40
4840;DHT22;2434;48.486;7.964;2023-07-29T02:39:37;19.70;83.20
4840;DHT22;2434;48.486;7.964;2023-07-29T02:42:06;19.70;83.20
4840;DHT22;2434;48.486;7.964;2023-07-29T02:44:34;19.60;83.10
4840;DHT22;2434;48.486;7.964;2023-07-29T02:47:03;19.70;83.10
4840;DHT22;2434;48.486;7.964;2023-07-29T02:49:32;19.70;83.10
4840;DHT22;2434;48.486;7.964;2023-07-29T02:52:01;19.70;82.60
4840;DHT22;2434;48.486;7.964;2023-07-29T02:54:29;19.70;84.10
4840;DHT22;2434;48.486;7.964;2023-07-29T02:56:57;19.70;83.60
4840;DHT22;2434;48.486;7.964;2023-07-29T02:59:25;19.70;84.30
4840;DHT22;2434;48.486;7.964;2023-07-29T03:01:54;19.70;84.50
4840;DHT22;2434;48.486;7.964;2023-07-29T03:04:22;19.70;84.90
4840;DHT22;2434;48.486;7.964;2023-07-29T03:06:52;19.70;85.50
4840;DHT22;2434;48.486;7.964;2023-07-29T03:09:20;19.70;85.50
4840;DHT22;2434;48.486;7.964;2023-07-29T03:11:48;19.60;85.80
4840;DHT22;2434;48.486;7.964;2023-07-29T03:14:18;19.60;86.40
4840;DHT22;2434;48.486;7.964;2023-07-29T03:16:46;19.60;86.80
4840;DHT22;2434;48.486;7.964;2023-07-29T03:19:15;19.60;87.10
4840;DHT22;2434;48.486;7.964;2023-07-29T03:21:44;19.60;87.50
4840;DHT22;2434;48.486;7.964;2023-07-29T03:24:17;19.60;87.30
4840;DHT22;2434;48.486;7.964;2023-07-29T03:26:45;19.60;87.30
4840;DHT22;2434;48.486;7.964;2023-07-29T03:29:13;19.50;88.10
4840;DHT22;2434;48.486;7.964;2023-07-29T03:31:42;19.40;88.40
4840;DHT22;2434;48.486;7.964;2023-07-29T03:34:10;19.40;88.70
4840;DHT22;2434;48.486;7.964;2023-07-29T03:36:43;19.30;89.10
4840;DHT22;2434;48.486;7.964;2023-07-29T03:39:12;19.30;89.40
4840;DHT22;2434;48.486;7.964;2023-07-29T03:41:42;19.30;90.00
4840;DHT22;2434;48.486;7.964;2023-07-29T03:44:10;19.20;89.90
4840;DHT22;2434;48.486;7.964;2023-07-29T03:46:39;19.20;90.30
4840;DHT22;2434;48.486;7.964;2023-07-29T03:49:08;19.10;90.30
4840;DHT22;2434;48.486;7.964;2023-07-29T03:51:37;19.20;90.80
4840;DHT22;2434;48.486;7.964;2023-07-29T03:54:05;19.10;91.30
4840;DHT22;2434;48.486;7.964;2023-07-29T03:56:34;19.10;91.90
4840;DHT22;2434;48.486;7.964;2023-07-29T03:59:05;19.10;92.80
4840;DHT22;2434;48.486;7.964;2023-07-29T04:01:34;19.10;92.30
4840;DHT22;2434;48.486;7.964;2023-07-29T04:04:03;19.10;92.50
4840;DHT22;2434;48.486;7.964;2023-07-29T04:06:31;19.10;92.50
4840;DHT22;2434;48.486;7.964;2023-07-29T04:09:00;19.10;92.60
4840;DHT22;2434;48.486;7.964;2023-07-29T04:11:29;19.10;92.30
4840;DHT22;2434;48.486;7.964;2023-07-29T04:13:57;19.10;92.30
4840;DHT22;2434;48.486;7.964;2023-07-29T04:16:27;19.10;92.20
4840;DHT22;2434;48.486;7.964;2023-07-29T04:18:56;19.10;92.20
4840;DHT22;2434;48.486;7.964;2023-07-29T04:21:24;19.10;92.10
4840;DHT22;2434;48.486;7.964;2023-07-29T04:23:53;19.20;92.10
4840;DHT22;2434;48.486;7.964;2023-07-29T04:26:21;19.20;92.40
4840;DHT22;2434;48.486;7.964;2023-07-29T04:28:49;19.10;92.10
4840;DHT22;2434;48.486;7.964;2023-07-29T04:31:18;19.20;92.00
4840;DHT22;2434;48.486;7.964;2023-07-29T04:33:48;19.10;91.90
4840;DHT22;2434;48.486;7.964;2023-07-29T04:36:16;19.20;91.30
4840;DHT22;2434;48.486;7.964;2023-07-29T04:38:45;19.20;91.00
4840;DHT22;2434;48.486;7.964;2023-07-29T04:41:13;19.20;90.90
4840;DHT22;2434;48.486;7.964;2023-07-29T04:43:42;19.10;90.60
4840;DHT22;2434;48.486;7.964;2023-07-29T04:46:10;19.10;91.60
4840;DHT22;2434;48.486;7.964;2023-07-29T04:48:38;19.20;91.10
4840;DHT22;2434;48.486;7.964;2023-07-29T04:51:08;19.20;91.20
4840;DHT22;2434;48.486;7.964;2023-07-29T04:53:36;19.20;91.40
4840;DHT22;2434;48.486;7.964;2023-07-29T04:56:05;19.20;91.40
4840;DHT22;2434;48.486;7.964;2023-07-29T04:58:33;19.20;92.40
4840;DHT22;2434;48.486;7.964;2023-07-29T05:01:02;19.20;91.50
4840;DHT22;2434;48.486;7.964;2023-07-29T05:03:31;19.20;91.50
4840;DHT22;2434;48.486;7.964;2023-07-29T05:06:00;19.20;91.40
4840;DHT22;2434;48.486;7.964;2023-07-29T05:08:29;19.20;91.40
4840;DHT22;2434;48.486;7.964;2023-07-29T05:10:58;19.30;91.60
4840;DHT22;2434;48.486;7.964;2023-07-29T05:13:26;19.30;91.70
4840;DHT22;2434;48.486;7.964;2023-07-29T05:15:55;19.20;91.60
4840;DHT22;2434;48.486;7.964;2023-07-29T05:18:24;19.30;92.00
4840;DHT22;2434;48.486;7.964;2023-07-29T05:20:52;19.30;92.20
4840;DHT22;2434;48.486;7.964;2023-07-29T05:23:21;19.30;92.30
4840;DHT22;2434;48.486;7.964;2023-07-29T05:25:51;19.30;92.10
4840;DHT22;2434;48.486;7.964;2023-07-29T05:28:19;19.30;92.20
4840;DHT22;2434;48.486;7.964;2023-07-29T05:30:48;19.30;92.10
4840;DHT22;2434;48.486;7.964;2023-07-29T05:33:16;19.30;92.10
4840;DHT22;2434;48.486;7.964;2023-07-29T05:35:44;19.30;92.00
4840;DHT22;2434;48.486;7.964;2023-07-29T05:38:14;19.30;91.90
4840;DHT22;2434;48.486;7.964;2023-07-29T05:40:43;19.30;92.00
4840;DHT22;2434;48.486;7.964;2023-07-29T05:43:13;19.40;92.50
4840;DHT22;2434;48.486;7.964;2023-07-29T05:45:41;19.30;91.80
4840;DHT22;2434;48.486;7.964;2023-07-29T05:48:09;19.30;92.00
4840;DHT22;2434;48.486;7.964;2023-07-29T05:50:38;19.30;92.70
4840;DHT22;2434;48.486;7.964;2023-07-29T05:53:06;19.30;92.00
4840;DHT22;2434;48.486;7.964;2023-07-29T05:55:35;19.30;92.10
4840;DHT22;2434;48.486;7.964;2023-07-29T05:58:03;19.30;91.60
4840;DHT22;2434;48.486;7.964;2023-07-29T06:00:33;19.30;91.40
4840;DHT22;2434;48.486;7.964;2023-07-29T06:03:01;19.20;91.70
4840;DHT22;2434;48.486;7.964;2023-07-29T06:05:30;19.10;91.60
4840;DHT22;2434;48.486;7.964;2023-07-29T06:07:58;19.10;91.80
4840;DHT22;2434;48.486;7.964;2023-07-29T06:10:26;19.00;92.30
4840;DHT22;2434;48.486;7.964;2023-07-29T06:12:54;19.00;92.80
4840;DHT22;2434;48.486;7.964;2023-07-29T06:15:23;19.00;93.10
4840;DHT22;2434;48.486;7.964;2023-07-29T06:17:53;19.00;93.60
4840;DHT22;2434;48.486;7.964;2023-07-29T06:20:23;19.10;93.90
4840;DHT22;2434;48.486;7.964;2023-07-29T06:22:52;19.00;94.00
4840;DHT22;2434;48.486;7.964;2023-07-29T06:25:20;19.00;94.10
4840;DHT22;2434;48.486;7.964;2023-07-29T06:27:49;19.00;94.00
4840;DHT22;2434;48.486;7.964;2023-07-29T06:30:17;19.00;95.10
4840;DHT22;2434;48.486;7.964;2023-07-29T06:32:46;19.10;94.70
4840;DHT22;2434;48.486;7.964;2023-07-29T06:35:15;19.10;95.40
4840;DHT22;2434;48.486;7.964;2023-07-29T06:37:44;19.10;94.80
4840;DHT22;2434;48.486;7.964;2023-07-29T06:40:12;19.10;95.00
4840;DHT22;2434;48.486;7.964;2023-07-29T06:42:40;19.20;95.40
4840;DHT22;2434;48.486;7.964;2023-07-29T06:45:09;19.20;95.50
4840;DHT22;2434;48.486;7.964;2023-07-29T06:47:38;19.20;95.40
4840;DHT22;2434;48.486;7.964;2023-07-29T06:50:07;19.30;95.70
4840;DHT22;2434;48.486;7.964;2023-07-29T06:52:37;19.30;95.60
4840;DHT22;2434;48.486;7.964;2023-07-29T06:55:07;19.30;95.90
4840;DHT22;2434;48.486;7.964;2023-07-29T06:57:36;19.40;95.80
4840;DHT22;2434;48.486;7.964;2023-07-29T07:00:05;19.50;96.00
4840;DHT22;2434;48.486;7.964;2023-07-29T07:02:34;19.50;96.10
4840;DHT22;2434;48.486;7.964;2023-07-29T07:05:03;19.60;96.60
4840;DHT22;2434;48.486;7.964;2023-07-29T07:07:31;19.70;96.10
4840;DHT22;2434;48.486;7.964;2023-07-29T07:10:01;19.70;96.40
4840;DHT22;2434;48.486;7.964;2023-07-29T07:12:29;19.80;96.60
4840;DHT22;2434;48.486;7.964;2023-07-29T07:14:57;19.80;96.30
4840;DHT22;2434;48.486;7.964;2023-07-29T07:17:26;19.90;96.30
4840;DHT22;2434;48.486;7.964;2023-07-29T07:19:54;19.90;95.10
4840;DHT22;2434;48.486;7.964;2023-07-29T07:22:22;19.90;94.70
4840;DHT22;2434;48.486;7.964;2023-07-29T07:24:50;20.00;95.10
4840;DHT22;2434;48.486;7.964;2023-07-29T07:27:20;20.00;94.80
4840;DHT22;2434;48.486;7.964;2023-07-29T07:29:49;20.00;93.50
4840;DHT22;2434;48.486;7.964;2023-07-29T07:32:17;20.00;93.00
4840;DHT22;2434;48.486;7.964;2023-07-29T07:34:45;20.10;92.60
4840;DHT22;2434;48.486;7.964;2023-07-29T07:37:13;20.10;92.10
4840;DHT22;2434;48.486;7.964;2023-07-29T07:39:41;20.10;92.60
4840;DHT22;2434;48.486;7.964;2023-07-29T07:42:09;20.10;93.50
4840;DHT22;2434;48.486;7.964;2023-07-29T07:44:39;20.10;92.70
4840;DHT22;2434;48.486;7.964;2023-07-29T07:47:07;20.20;92.90
4840;DHT22;2434;48.486;7.964;2023-07-29T07:49:36;20.20;93.00
4840;DHT22;2434;48.486;7.964;2023-07-29T07:52:04;20.30;93.00
4840;DHT22;2434;48.486;7.964;2023-07-29T07:54:33;20.30;93.10
4840;DHT22;2434;48.486;7.964;2023-07-29T07:57:01;20.30;93.70
4840;DHT22;2434;48.486;7.964;2023-07-29T07:59:29;20.30;93.10
4840;DHT22;2434;48.486;7.964;2023-07-29T08:01:59;20.30;93.50
4840;DHT22;2434;48.486;7.964;2023-07-29T08:04:27;20.40;93.70
4840;DHT22;2434;48.486;7.964;2023-07-29T08:06:55;20.40;93.40
4840;DHT22;2434;48.486;7.964;2023-07-29T08:09:24;20.40;92.80
4840;DHT22;2434;48.486;7.964;2023-07-29T08:11:52;20.50;93.80
4840;DHT22;2434;48.486;7.964;2023-07-29T08:14:20;20.50;92.50
4840;DHT22;2434;48.486;7.964;2023-07-29T08:16:48;20.60;91.60
4840;DHT22;2434;48.486;7.964;2023-07-29T08:19:18;20.70;93.40
4840;DHT22;2434;48.486;7.964;2023-07-29T08:21:48;20.80;93.70
4840;DHT22;2434;48.486;7.964;2023-07-29T08:24:17;20.80;93.10
4840;DHT22;2434;48.486;7.964;2023-07-29T08:26:45;20.90;95.20
4840;DHT22;2434;48.486;7.964;2023-07-29T08:29:13;21.00;96.10
4840;DHT22;2434;48.486;7.964;2023-07-29T08:31:41;21.10;95.50
4840;DHT22;2434;48.486;7.964;2023-07-29T08:34:09;21.10;94.00
4840;DHT22;2434;48.486;7.964;2023-07-29T08:36:39;21.10;93.60
4840;DHT22;2434;48.486;7.964;2023-07-29T08:39:07;21.20;93.40
4840;DHT22;2434;48.486;7.964;2023-07-29T08:41:40;21.30;91.90
4840;DHT22;2434;48.486;7.964;2023-07-29T08:44:12;21.40;91.70
4840;DHT22;2434;48.486;7.964;2023-07-29T08:46:41;21.50;91.00
4840;DHT22;2434;48.486;7.964;2023-07-29T08:49:11;21.50;89.80
4840;DHT22;2434;48.486;7.964;2023-07-29T08:51:44;21.50;88.20
4840;DHT22;2434;48.486;7.964;2023-07-29T08:54:13;21.60;88.80
4840;DHT22;2434;48.486;7.964;2023-07-29T08:56:42;21.50;89.00
4840;DHT22;2434;48.486;7.964;2023-07-29T08:59:10;21.60;89.10
4840;DHT22;2434;48.486;7.964;2023-07-29T09:01:39;21.60;89.40
4840;DHT22;2434;48.486;7.964;2023-07-29T09:04:07;21.70;90.70
4840;DHT22;2434;48.486;7.964;2023-07-29T09:06:36;21.70;89.50
4840;DHT22;2434;48.486;7.964;2023-07-29T09:09:07;21.70;90.40
4840;DHT22;2434;48.486;7.964;2023-07-29T09:11:36;21.70;90.80
4840;DHT22;2434;48.486;7.964;2023-07-29T09:14:04;21.70;90.90
4840;DHT22;2434;48.486;7.964;2023-07-29T09:16:32;21.70;90.40
4840;DHT22;2434;48.486;7.964;2023-07-29T09:19:02;21.70;88.50
4840;DHT22;2434;48.486;7.964;2023-07-29T09:21:32;21.70;88.20
4840;DHT22;2434;48.486;7.964;2023-07-29T09:24:03;21.70;86.60
4840;DHT22;2434;48.486;7.964;2023-07-29T09:26:34;21.70;87.20
4840;DHT22;2434;48.486;7.964;2023-07-29T09:29:03;21.80;87.60
4840;DHT22;2434;48.486;7.964;2023-07-29T09:31:31;21.80;88.00
4840;DHT22;2434;48.486;7.964;2023-07-29T09:34:01;21.80;85.40
4840;DHT22;2434;48.486;7.964;2023-07-29T09:36:32;21.90;87.50
4840;DHT22;2434;48.486;7.964;2023-07-29T09:39:01;22.00;88.20
4840;DHT22;2434;48.486;7.964;2023-07-29T09:41:30;22.10;88.80
4840;DHT22;2434;48.486;7.964;2023-07-29T09:44:01;22.20;86.20
4840;DHT22;2434;48.486;7.964;2023-07-29T09:46:33;22.30;80.70
4840;DHT22;2434;48.486;7.964;2023-07-29T09:49:03;22.40;78.00
4840;DHT22;2434;48.486;7.964;2023-07-29T09:51:32;22.50;76.70
4840;DHT22;2434;48.486;7.964;2023-07-29T09:54:04;22.50;75.80
4840;DHT22;2434;48.486;7.964;2023-07-29T09:56:33;22.50;75.80
4840;DHT22;2434;48.486;7.964;2023-07-29T09:59:04;22.50;74.80
4840;DHT22;2434;48.486;7.964;2023-07-29T10:01:33;22.40;70.00
4840;DHT22;2434;48.486;7.964;2023-07-29T10:04:04;22.50;69.00
4840;DHT22;2434;48.486;7.964;2023-07-29T10:06:34;22.60;68.50
4840;DHT22;2434;48.486;7.964;2023-07-29T10:09:04;22.60;68.10
4840;DHT22;2434;48.486;7.964;2023-07-29T10:11:34;22.60;68.80
4840;DHT22;2434;48.486;7.964;2023-07-29T10:14:05;22.60;69.90
4840;DHT22;2434;48.486;7.964;2023-07-29T10:16:36;22.50;67.70
4840;DHT22;2434;48.486;7.964;2023-07-29T10:19:07;22.60;66.70
4840;DHT22;2434;48.486;7.964;2023-07-29T10:21:37;22.60;64.20
4840;DHT22;2434;48.486;7.964;2023-07-29T10:24:15;22.60;63.90
4840;DHT22;2434;48.486;7.964;2023-07-29T10:26:46;22.50;64.20
4840;DHT22;2434;48.486;7.964;2023-07-29T10:29:19;22.60;64.60
4840;DHT22;2434;48.486;7.964;2023-07-29T10:31:48;22.50;62.40
4840;DHT22;2434;48.486;7.964;2023-07-29T10:34:20;22.60;64.00
4840;DHT22;2434;48.486;7.964;2023-07-29T10:36:50;22.60;63.90
4840;DHT22;2434;48.486;7.964;2023-07-29T10:39:19;22.60;62.60
4840;DHT22;2434;48.486;7.964;2023-07-29T10:41:55;22.60;63.50
4840;DHT22;2434;48.486;7.964;2023-07-29T10:44:47;22.70;59.80
4840;DHT22;2434;48.486;7.964;2023-07-29T10:47:18;22.70;60.10
4840;DHT22;2434;48.486;7.964;2023-07-29T10:49:49;22.80;60.70
4840;DHT22;2434;48.486;7.964;2023-07-29T10:52:29;22.80;61.80
4840;DHT22;2434;48.486;7.964;2023-07-29T10:54:58;22.90;59.70
4840;DHT22;2434;48.486;7.964;2023-07-29T10:57:34;22.90;68.80
4840;DHT22;2434;48.486;7.964;2023-07-29T11:00:05;23.00;70.70
4840;DHT22;2434;48.486;7.964;2023-07-29T11:02:36;23.00;60.40
4840;DHT22;2434;48.486;7.964;2023-07-29T11:05:06;23.10;58.30
4840;DHT22;2434;48.486;7.964;2023-07-29T11:07:43;23.10;60.30
4840;DHT22;2434;48.486;7.964;2023-07-29T11:10:12;23.20;60.20
4840;DHT22;2434;48.486;7.964;2023-07-29T11:12:44;23.30;60.00
4840;DHT22;2434;48.486;7.964;2023-07-29T11:15:18;23.40;54.80
4840;DHT22;2434;48.486;7.964;2023-07-29T11:17:49;23.40;55.50
4840;DHT22;2434;48.486;7.964;2023-07-29T11:20:21;23.40;55.30
4840;DHT22;2434;48.486;7.964;2023-07-29T11:22:50;23.50;52.80
4840;DHT22;2434;48.486;7.964;2023-07-29T11:25:18;23.50;53.70
4840;DHT22;2434;48.486;7.964;2023-07-29T11:27:47;23.60;52.30
4840;DHT22;2434;48.486;7.964;2023-07-29T11:30:17;23.60;52.50
4840;DHT22;2434;48.486;7.964;2023-07-29T11:32:46;23.70;53.80
4840;DHT22;2434;48.486;7.964;2023-07-29T11:35:16;23.70;54.40
4840;DHT22;2434;48.486;7.964;2023-07-29T11:37:45;23.80;53.90
4840;DHT22;2434;48.486;7.964;2023-07-29T11:40:14;23.80;54.70
4840;DHT22;2434;48.486;7.964;2023-07-29T11:42:44;23.80;52.80
4840;DHT22;2434;48.486;7.964;2023-07-29T11:45:13;23.80;52.40
4840;DHT22;2434;48.486;7.964;2023-07-29T11:47:46;23.90;50.00
4840;DHT22;2434;48.486;7.964;2023-07-29T11:50:14;23.90;51.40
4840;DHT22;2434;48.486;7.964;2023-07-29T11:52:45;23.90;48.80
4840;DHT22;2434;48.486;7.964;2023-07-29T11:55:14;24.00;47.20
4840;DHT22;2434;48.486;7.964;2023-07-29T11:57:43;24.00;48.00
4840;DHT22;2434;48.486;7.964;2023-07-29T12:00:12;24.10;49.80
4840;DHT22;2434;48.486;7.964;2023-07-29T12:02:45;24.10;49.50
4840;DHT22;2434;48.486;7.964;2023-07-29T12:05:14;24.20;46.90
4840;DHT22;2434;48.486;7.964;2023-07-29T12:07:44;24.20;46.90
4840;DHT22;2434;48.486;7.964;2023-07-29T12:10:13;24.20;46.60
4840;DHT22;2434;48.486;7.964;2023-07-29T12:12:46;24.30;45.20
4840;DHT22;2434;48.486;7.964;2023-07-29T12:15:23;24.30;46.10
4840;DHT22;2434;48.486;7.964;2023-07-29T12:17:57;24.20;48.00
4840;DHT22;2434;48.486;7.964;2023-07-29T12:20:26;24.30;47.90
4840;DHT22;2434;48.486;7.964;2023-07-29T12:22:56;24.30;43.90
4840;DHT22;2434;48.486;7.964;2023-07-29T12:25:26;24.40;44.80
4840;DHT22;2434;48.486;7.964;2023-07-29T12:27:54;24.50;42.30
4840;DHT22;2434;48.486;7.964;2023-07-29T12:30:23;24.50;44.20
4840;DHT22;2434;48.486;7.964;2023-07-29T12:32:52;24.60;41.00
4840;DHT22;2434;48.486;7.964;2023-07-29T12:35:21;24.60;41.00
4840;DHT22;2434;48.486;7.964;2023-07-29T12:37:58;24.60;41.00
4840;DHT22;2434;48.486;7.964;2023-07-29T12:40:27;24.70;42.60
4840;DHT22;2434;48.486;7.964;2023-07-29T12:42:56;24.70;40.40
4840;DHT22;2434;48.486;7.964;2023-07-29T12:45:24;24.60;41.70
4840;DHT22;2434;48.486;7.964;2023-07-29T12:47:56;24.60;41.10
4840;DHT22;2434;48.486;7.964;2023-07-29T12:50:25;24.70;41.70
4840;DHT22;2434;48.486;7.964;2023-07-29T12:52:54;24.70;41.80
4840;DHT22;2434;48.486;7.964;2023-07-29T12:55:22;24.70;41.80
4840;DHT22;2434;48.486;7.964;2023-07-29T12:57:51;24.70;42.50
4840;DHT22;2434;48.486;7.964;2023-07-29T13:00:19;24.70;42.50
4840;DHT22;2434;48.486;7.964;2023-07-29T13:02:47;24.70;45.50
4840;DHT22;2434;48.486;7.964;2023-07-29T13:05:16;24.70;44.30
4840;DHT22;2434;48.486;7.964;2023-07-29T13:07:45;24.60;45.30
4840;DHT22;2434;48.486;7.964;2023-07-29T13:10:14;24.80;42.80
4840;DHT22;2434;48.486;7.964;2023-07-29T13:12:43;24.80;42.10
4840;DHT22;2434;48.486;7.964;2023-07-29T13:15:12;24.80;44.00
4840;DHT22;2434;48.486;7.964;2023-07-29T13:17:40;24.80;44.60
4840;DHT22;2434;48.486;7.964;2023-07-29T13:20:09;24.90;43.40
4840;DHT22;2434;48.486;7.964;2023-07-29T13:22:37;24.90;42.70
4840;DHT22;2434;48.486;7.964;2023-07-29T13:25:07;25.00;42.60
4840;DHT22;2434;48.486;7.964;2023-07-29T13:27:36;25.00;42.00
4840;DHT22;2434;48.486;7.964;2023-07-29T13:30:06;25.00;42.20
4840;DHT22;2434;48.486;7.964;2023-07-29T13:32:34;25.00;42.60
4840;DHT22;2434;48.486;7.964;2023-07-29T13:35:03;25.10;41.60
4840;DHT22;2434;48.486;7.964;2023-07-29T13:37:31;25.20;41.20
4840;DHT22;2434;48.486;7.964;2023-07-29T13:40:00;25.10;41.60
4840;DHT22;2434;48.486;7.964;2023-07-29T13:42:30;25.10;44.00
4840;DHT22;2434;48.486;7.964;2023-07-29T13:44:58;25.10;40.20
4840;DHT22;2434;48.486;7.964;2023-07-29T13:47:26;25.10;39.70
4840;DHT22;2434;48.486;7.964;2023-07-29T13:49:54;25.10;39.50
4840;DHT22;2434;48.486;7.964;2023-07-29T13:52:22;25.00;39.80
4840;DHT22;2434;48.486;7.964;2023-07-29T13:54:50;25.00;42.00
4840;DHT22;2434;48.486;7.964;2023-07-29T13:57:19;24.90;41.10
4840;DHT22;2434;48.486;7.964;2023-07-29T13:59:48;25.00;41.20
4840;DHT22;2434;48.486;7.964;2023-07-29T14:02:17;24.90;43.70
4840;DHT22;2434;48.486;7.964;2023-07-29T14:04:45;24.90;43.40
4840;DHT22;2434;48.486;7.964;2023-07-29T14:07:13;24.90;43.50
4840;DHT22;2434;48.486;7.964;2023-07-29T14:09:42;24.80;43.70
4840;DHT22;2434;48.486;7.964;2023-07-29T14:12:10;24.90;43.90
4840;DHT22;2434;48.486;7.964;2023-07-29T14:14:39;24.80;44.00
4840;DHT22;2434;48.486;7.964;2023-07-29T14:17:09;24.90;43.60
4840;DHT22;2434;48.486;7.964;2023-07-29T14:19:37;24.90;43.40
4840;DHT22;2434;48.486;7.964;2023-07-29T14:22:05;24.80;44.30
4840;DHT22;2434;48.486;7.964;2023-07-29T14:24:34;24.80;45.50
4840;DHT22;2434;48.486;7.964;2023-07-29T14:27:02;24.80;44.80
4840;DHT22;2434;48.486;7.964;2023-07-29T14:29:31;24.90;44.90
4840;DHT22;2434;48.486;7.964;2023-07-29T14:31:59;24.90;45.80
4840;DHT22;2434;48.486;7.964;2023-07-29T14:34:28;24.90;46.60
4840;DHT22;2434;48.486;7.964;2023-07-29T14:36:57;24.80;45.30
4840;DHT22;2434;48.486;7.964;2023-07-29T14:39:25;24.80;45.30
4840;DHT22;2434;48.486;7.964;2023-07-29T14:41:53;24.80;44.70
4840;DHT22;2434;48.486;7.964;2023-07-29T14:44:21;24.80;44.60
4840;DHT22;2434;48.486;7.964;2023-07-29T14:46:50;24.80;46.10
4840;DHT22;2434;48.486;7.964;2023-07-29T14:49:18;24.90;46.60
4840;DHT22;2434;48.486;7.964;2023-07-29T14:51:48;24.90;46.60
4840;DHT22;2434;48.486;7.964;2023-07-29T14:54:16;24.90;45.60
4840;DHT22;2434;48.486;7.964;2023-07-29T14:56:44;24.90;45.40
4840;DHT22;2434;48.486;7.964;2023-07-29T14:59:12;24.90;45.30
4840;DHT22;2434;48.486;7.964;2023-07-29T15:01:41;24.80;46.00
4840;DHT22;2434;48.486;7.964;2023-07-29T15:04:09;24.80;47.20
4840;DHT22;2434;48.486;7.964;2023-07-29T15:06:37;24.80;47.00
4840;DHT22;2434;48.486;7.964;2023-07-29T15:09:07;24.80;47.20
4840;DHT22;2434;48.486;7.964;2023-07-29T15:11:36;24.90;46.40
4840;DHT22;2434;48.486;7.964;2023-07-29T15:14:04;24.90;45.70
4840;DHT22;2434;48.486;7.964;2023-07-29T15:16:32;24.90;45.50
4840;DHT22;2434;48.486;7.964;2023-07-29T15:19:03;24.90;44.30
4840;DHT22;2434;48.486;7.964;2023-07-29T15:21:31;24.90;46.40
4840;DHT22;2434;48.486;7.964;2023-07-29T15:24:00;25.00;46.10
4840;DHT22;2434;48.486;7.964;2023-07-29T15:26:30;25.00;46.80
4840;DHT22;2434;48.486;7.964;2023-07-29T15:31:27;24.90;46.80
4840;DHT22;2434;48.486;7.964;2023-07-29T15:33:56;24.90;46.40
4840;DHT22;2434;48.486;7.964;2023-07-29T15:36:24;24.90;46.20
4840;DHT22;2434;48.486;7.964;2023-07-29T15:38:52;24.90;46.40
4840;DHT22;2434;48.486;7.964;2023-07-29T15:41:21;24.90;45.20
4840;DHT22;2434;48.486;7.964;2023-07-29T15:43:50;24.90;46.40
4840;DHT22;2434;48.486;7.964;2023-07-29T15:46:18;24.90;46.90
4840;DHT22;2434;48.486;7.964;2023-07-29T15:48:47;24.90;47.40
4840;DHT22;2434;48.486;7.964;2023-07-29T15:51:15;24.80;47.60
4840;DHT22;2434;48.486;7.964;2023-07-29T15:53:43;24.80;48.00
4840;DHT22;2434;48.486;7.964;2023-07-29T15:56:11;24.80;47.90
4840;DHT22;2434;48.486;7.964;2023-07-29T15:58:39;24.90;47.20
4840;DHT22;2434;48.486;7.964;2023-07-29T16:01:09;24.90;50.00
4840;DHT22;2434;48.486;7.964;2023-07-29T16:03:38;24.90;51.50
4840;DHT22;2434;48.486;7.964;2023-07-29T16:06:08;24.80;51.60
4840;DHT22;2434;48.486;7.964;2023-07-29T16:08:36;24.70;52.50
4840;DHT22;2434;48.486;7.964;2023-07-29T16:11:05;24.70;52.90
4840;DHT22;2434;48.486;7.964;2023-07-29T16:13:33;24.60;52.80
4840;DHT22;2434;48.486;7.964;2023-07-29T16:16:01;24.60;53.40
4840;DHT22;2434;48.486;7.964;2023-07-29T16:18:31;24.50;54.00